Time;durP1;ratioP1;P1;durP2;ratioP2;P2;SDS_P1;SDS_P2;PMS_P1;PMS_P2;Temp;Humidity;BMP_temperature;BMP_pressure;BME280_temperature;BME280_humidity;BME280_pressure;Samples;Min_cycle;Max_cycle;Signal;HPM_P1;HPM_P2
2024/01/08 00:01:14;;;;;;;1999.90;999.90;;;-0.30;55.00;;;;;;5035338;28;20173;-71
2024/01/08 00:03:40;;;;;;;1999.90;999.90;;;-0.30;52.50;;;;;;5035294;28;20534;-71
2024/01/08 00:06:06;;;;;;;1999.90;999.90;;;-0.40;52.50;;;;;;5035034;28;20489;-71
2024/01/08 00:08:32;;;;;;;1999.90;999.90;;;-0.30;53.40;;;;;;5035241;28;20219;-72
2024/01/08 00:10:57;;;;;;;1999.90;999.90;;;-0.40;52.70;;;;;;5035182;28;20407;-72
2024/01/08 00:13:23;;;;;;;1999.90;999.90;;;-0.40;51.10;;;;;;5035052;28;20403;-71
2024/01/08 00:15:49;;;;;;;1999.90;999.90;;;-0.30;49.30;;;;;;5035379;28;20192;-72
2024/01/08 00:18:14;;;;;;;1999.90;999.90;;;-0.40;47.70;;;;;;5035092;28;20175;-71
2024/01/08 00:20:41;;;;;;;1999.90;999.90;;;-0.30;46.40;;;;;;5035081;28;20196;-72
2024/01/08 00:23:07;;;;;;;1999.90;999.90;;;-0.30;46.90;;;;;;5034920;28;20602;-71
2024/01/08 00:25:33;;;;;;;1999.90;999.90;;;-0.20;44.90;;;;;;5034837;28;20590;-72
2024/01/08 00:27:58;;;;;;;1999.90;999.90;;;-0.20;41.00;;;;;;5034879;28;20537;-71
2024/01/08 00:30:24;;;;;;;1999.90;999.90;;;-0.20;39.70;;;;;;5034799;28;20172;-72
2024/01/08 00:32:50;;;;;;;1999.90;999.90;;;-0.20;38.50;;;;;;5033896;28;20533;-72
2024/01/08 00:35:16;;;;;;;1999.90;999.90;;;-0.20;38.30;;;;;;5033377;28;20200;-71
2024/01/08 00:37:41;;;;;;;1999.90;999.90;;;-0.20;38.90;;;;;;5034712;28;20302;-72
2024/01/08 00:40:09;;;;;;;1999.90;999.90;;;-0.20;37.00;;;;;;5034703;28;20172;-72
2024/01/08 00:42:35;;;;;;;1999.90;999.90;;;-0.20;36.90;;;;;;5034622;28;20172;-72
2024/01/08 00:45:02;;;;;;;1999.90;999.90;;;-0.20;59.50;;;;;;5034362;28;20267;-72
2024/01/08 00:47:28;;;;;;;1999.90;999.90;;;-0.20;34.20;;;;;;5034539;28;20727;-71
2024/01/08 00:49:53;;;;;;;1999.90;999.90;;;-0.10;33.50;;;;;;5034520;28;20176;-71
2024/01/08 00:52:19;;;;;;;1999.90;999.90;;;-0.10;33.40;;;;;;5034392;28;20183;-72
2024/01/08 00:54:45;;;;;;;1999.90;999.90;;;-0.20;32.70;;;;;;5034387;28;20164;-72
2024/01/08 00:57:11;;;;;;;1999.90;999.90;;;-0.10;32.40;;;;;;5034234;28;20203;-71
2024/01/08 00:59:36;;;;;;;1999.90;999.90;;;0.00;32.00;;;;;;5034283;28;20214;-71
2024/01/08 01:02:02;;;;;;;1999.90;999.90;;;0.00;32.70;;;;;;5034410;28;20199;-71
2024/01/08 01:04:28;;;;;;;1999.90;999.90;;;;;;;;;;5034247;28;20239;-71
2024/01/08 01:06:54;;;;;;;1999.90;999.90;;;0.00;30.70;;;;;;5034136;28;20227;-71
2024/01/08 01:09:19;;;;;;;1999.90;999.90;;;0.10;31.20;;;;;;5034361;28;20475;-71
2024/01/08 01:11:45;;;;;;;1999.90;999.90;;;0.00;31.90;;;;;;5032879;28;20181;-71
2024/01/08 01:14:11;;;;;;;1999.90;999.90;;;0.00;32.00;;;;;;5033976;28;20176;-72
2024/01/08 01:16:36;;;;;;;1999.90;999.90;;;0.10;31.80;;;;;;5034208;28;20192;-71
2024/01/08 01:19:02;;;;;;;1999.90;999.90;;;0.00;31.20;;;;;;5034192;28;20251;-71
2024/01/08 01:21:28;;;;;;;1999.90;999.90;;;-0.20;32.10;;;;;;5034002;28;20546;-71
2024/01/08 01:23:54;;;;;;;1999.90;999.90;;;0.10;32.30;;;;;;5033785;28;20217;-72
2024/01/08 01:26:20;;;;;;;1999.90;999.90;;;0.00;32.50;;;;;;5032540;28;20633;-72
2024/01/08 01:28:46;;;;;;;1999.90;999.90;;;-0.10;33.90;;;;;;5033884;28;20247;-72
2024/01/08 01:31:12;;;;;;;1999.90;999.90;;;-0.10;35.40;;;;;;5033808;28;20252;-72
2024/01/08 01:33:38;;;;;;;1999.90;999.90;;;-0.10;36.70;;;;;;5033684;28;20694;-71
2024/01/08 01:36:04;;;;;;;1999.90;999.90;;;0.00;37.80;;;;;;5033618;28;20234;-71
2024/01/08 01:38:31;;;;;;;1999.90;999.90;;;0.10;38.30;;;;;;5033679;28;20254;-72
2024/01/08 01:40:56;;;;;;;1999.90;999.90;;;0.10;37.00;;;;;;5033720;28;20172;-71
2024/01/08 01:43:26;;;;;;;1999.90;999.90;;;0.00;36.20;;;;;;5033500;28;20494;-72
2024/01/08 01:45:59;;;;;;;1999.90;999.90;;;0.00;36.40;;;;;;5033264;28;20239;-71
2024/01/08 01:48:27;;;;;;;1999.90;999.90;;;0.00;36.50;;;;;;5033542;28;20558;-72
2024/01/08 01:50:53;;;;;;;1999.90;999.90;;;0.00;60.70;;;;;;5033654;28;20164;-71
2024/01/08 01:53:19;;;;;;;1999.90;999.90;;;0.90;36.50;;;;;;5033151;28;20222;-72
2024/01/08 01:55:46;;;;;;;1999.90;999.90;;;0.00;34.50;;;;;;5033163;28;20571;-71
2024/01/08 01:58:12;;;;;;;1999.90;999.90;;;0.00;33.00;;;;;;5033148;28;20176;-72
2024/01/08 02:00:39;;;;;;;1999.90;999.90;;;0.00;33.20;;;;;;5033195;28;20199;-71
2024/01/08 02:03:06;;;;;;;1999.90;999.90;;;0.00;33.90;;;;;;5033240;28;20165;-71
2024/01/08 02:05:32;;;;;;;1999.90;999.90;;;-0.10;33.80;;;;;;5033100;28;20196;-71
2024/01/08 02:07:58;;;;;;;1999.90;999.90;;;-0.10;33.50;;;;;;5033112;28;20539;-71
2024/01/08 02:10:25;;;;;;;1999.90;999.90;;;-0.10;34.20;;;;;;5033482;28;20172;-72
2024/01/08 02:12:51;;;;;;;1999.90;999.90;;;0.00;34.40;;;;;;5032810;28;20671;-71
2024/01/08 02:15:17;;;;;;;1999.90;999.90;;;0.00;35.40;;;;;;5032828;28;20198;-72
2024/01/08 02:17:42;;;;;;;1999.90;999.90;;;0.00;36.60;;;;;;5032877;28;20454;-71
2024/01/08 02:20:08;;;;;;;1999.90;999.90;;;0.00;38.70;;;;;;5032826;28;20183;-72
2024/01/08 02:22:41;;;;;;;1999.90;999.90;;;0.00;38.50;;;;;;5032404;28;20172;-72
2024/01/08 02:25:08;;;;;;;1999.90;999.90;;;-0.10;37.90;;;;;;5032595;28;20443;-72
2024/01/08 02:27:34;;;;;;;1999.90;999.90;;;-0.10;38.90;;;;;;5032527;28;20207;-72
2024/01/08 02:30:00;;;;;;;1999.90;999.90;;;-0.20;39.60;;;;;;5032610;28;20176;-72
2024/01/08 02:32:25;;;;;;;1999.90;999.90;;;-0.20;40.30;;;;;;5032459;28;20160;-72
2024/01/08 02:34:51;;;;;;;1999.90;999.90;;;-0.20;66.10;;;;;;5032202;28;20639;-72
2024/01/08 02:37:17;;;;;;;1999.90;999.90;;;-0.30;41.10;;;;;;5032331;28;20218;-72
2024/01/08 02:39:42;;;;;;;1999.90;999.90;;;-0.30;41.90;;;;;;5032482;28;20172;-72
2024/01/08 02:42:08;;;;;;;1999.90;999.90;;;-0.40;43.90;;;;;;5032411;28;20168;-72
2024/01/08 02:44:33;;;;;;;1999.90;999.90;;;-0.40;45.30;;;;;;5032197;28;20172;-71
2024/01/08 02:46:59;;;;;;;1999.90;999.90;;;-0.40;46.90;;;;;;5032248;28;20208;-71
2024/01/08 02:49:26;;;;;;;1999.90;999.90;;;-0.40;47.00;;;;;;5031045;28;20542;-72
2024/01/08 02:51:52;;;;;;;1999.90;999.90;;;-0.30;74.80;;;;;;5032223;28;20169;-72
2024/01/08 02:54:18;;;;;;;1999.90;999.90;;;-0.30;46.30;;;;;;5031003;28;20172;-72
2024/01/08 02:56:43;;;;;;;1999.90;999.90;;;-0.40;45.60;;;;;;5031909;28;20254;-71
2024/01/08 02:59:09;;;;;;;1999.90;999.90;;;-0.50;45.70;;;;;;5032312;28;20606;-71
2024/01/08 03:01:36;;;;;;;1999.90;999.90;;;-0.50;45.30;;;;;;5032223;28;20168;-71
2024/01/08 03:04:02;;;;;;;1999.90;999.90;;;-0.50;44.70;;;;;;5032057;28;20176;-71
2024/01/08 03:06:27;;;;;;;1999.90;999.90;;;-0.50;45.00;;;;;;5031851;28;20717;-71
2024/01/08 03:08:53;;;;;;;1999.90;999.90;;;-0.40;44.30;;;;;;5032155;28;20435;-71
2024/01/08 03:11:18;;;;;;;1999.90;999.90;;;-0.40;43.80;;;;;;5031975;28;20172;-71
2024/01/08 03:13:44;;;;;;;1999.90;999.90;;;-0.50;43.20;;;;;;5031974;28;20173;-71
2024/01/08 03:16:10;;;;;;;1999.90;999.90;;;-0.50;43.60;;;;;;5031998;28;20250;-72
2024/01/08 03:18:35;;;;;;;1999.90;999.90;;;-0.50;43.90;;;;;;5030710;28;20647;-72
2024/01/08 03:21:01;;;;;;;1999.90;999.90;;;-0.40;45.60;;;;;;5031798;28;20175;-71
2024/01/08 03:23:27;;;;;;;1999.90;999.90;;;-0.40;46.90;;;;;;5031770;28;20687;-71
2024/01/08 03:25:53;;;;;;;1999.90;999.90;;;-0.30;47.50;;;;;;5031781;28;20200;-71
2024/01/08 03:28:18;;;;;;;1999.90;999.90;;;-0.50;47.50;;;;;;5032071;28;20164;-71
2024/01/08 03:30:44;;;;;;;1999.90;999.90;;;-0.60;48.50;;;;;;5031915;28;20172;-71
2024/01/08 03:33:10;;;;;;;1999.90;999.90;;;-0.50;49.20;;;;;;5031861;28;20164;-71
2024/01/08 03:35:36;;;;;;;1999.90;999.90;;;-0.50;49.60;;;;;;5031874;28;20184;-71
2024/01/08 03:38:01;;;;;;;1999.90;999.90;;;-0.50;49.30;;;;;;5031852;28;20207;-71
2024/01/08 03:40:27;;;;;;;1999.90;999.90;;;-0.50;82.70;;;;;;5031921;28;20161;-71
2024/01/08 03:42:53;;;;;;;1999.90;999.90;;;-0.50;51.50;;;;;;5030582;28;20263;-71
2024/01/08 03:45:18;;;;;;;1999.90;999.90;;;-0.50;53.80;;;;;;5031599;28;20203;-71
2024/01/08 03:47:44;;;;;;;1999.90;999.90;;;-0.60;55.70;;;;;;5031782;28;20207;-71
2024/01/08 03:50:10;;;;;;;1999.90;999.90;;;-0.60;57.70;;;;;;5031783;28;20160;-71
2024/01/08 03:52:36;;;;;;;1999.90;999.90;;;;;;;;;;5031497;28;20391;-71
2024/01/08 03:55:02;;;;;;;1999.90;999.90;;;-0.60;92.70;;;;;;5031646;28;20168;-71
2024/01/08 03:57:27;;;;;;;1999.90;999.90;;;;;;;;;;5031778;28;20575;-71
2024/01/08 03:59:53;;;;;;;1999.90;999.90;;;-0.60;63.50;;;;;;5031633;28;20255;-71
2024/01/08 04:02:19;;;;;;;1999.90;999.90;;;2.20;68.80;;;;;;5031791;28;20259;-71
2024/01/08 04:04:44;;;;;;;1999.90;999.90;;;-0.70;65.60;;;;;;5031384;28;20172;-71
2024/01/08 04:07:11;;;;;;;1999.90;999.90;;;-0.70;67.70;;;;;;5031912;28;20286;-71
2024/01/08 04:09:38;;;;;;;1999.90;999.90;;;-1.10;67.80;;;;;;5035224;28;20169;-71
2024/01/08 04:12:04;;;;;;;1999.90;999.90;;;-0.70;96.20;;;;;;5035408;28;20169;-71
2024/01/08 04:14:30;;;;;;;1999.90;999.90;;;-0.70;69.70;;;;;;5035157;28;20172;-71
2024/01/08 04:16:56;;;;;;;1999.90;999.90;;;-1.10;70.00;;;;;;5035366;28;20256;-71
2024/01/08 04:19:22;;;;;;;1999.90;999.90;;;-0.80;75.00;;;;;;5035021;28;20187;-71
2024/01/08 04:21:47;;;;;;;1999.90;999.90;;;-0.70;74.90;;;;;;5035232;28;20402;-71
2024/01/08 04:24:14;;;;;;;1999.90;999.90;;;-0.70;75.80;;;;;;5035112;28;20203;-71
2024/01/08 04:26:39;;;;;;;1999.90;999.90;;;-0.70;79.30;;;;;;5033759;28;20294;-71
2024/01/08 04:29:05;;;;;;;1999.90;999.90;;;-0.80;80.20;;;;;;5035359;28;20196;-71
2024/01/08 04:31:31;;;;;;;1999.90;999.90;;;-0.90;83.80;;;;;;5034814;28;20165;-72
2024/01/08 04:33:57;;;;;;;1999.90;999.90;;;-0.90;88.30;;;;;;5034431;28;20749;-72
2024/01/08 04:36:22;;;;;;;1999.90;999.90;;;-0.90;87.50;;;;;;5034649;28;20188;-72
2024/01/08 04:38:48;;;;;;;1999.90;999.90;;;-0.90;87.30;;;;;;5034710;28;20411;-72
2024/01/08 04:41:20;;;;;;;1999.90;999.90;;;-0.90;86.90;;;;;;5034658;28;20173;-72
2024/01/08 04:43:46;;;;;;;1999.90;999.90;;;-0.80;87.70;;;;;;5034354;28;20165;-72
2024/01/08 04:46:12;;;;;;;1999.90;999.90;;;-0.90;90.20;;;;;;5061444;23;20621;-74
2024/01/08 04:48:37;;;;;;;1999.90;999.90;;;-0.80;91.10;;;;;;5014707;28;20172;-73
2024/01/08 04:51:03;;;;;;;1999.90;999.90;;;-0.80;91.00;;;;;;5012527;28;20172;-73
2024/01/08 04:53:33;;;;;;;1999.90;999.90;;;-0.80;91.40;;;;;;5012274;28;20173;-73
2024/01/08 04:55:58;;;;;;;1999.90;999.90;;;-0.80;92.10;;;;;;5015023;28;20220;-74
2024/01/08 04:58:24;;;;;;;1999.90;999.90;;;-0.80;92.40;;;;;;5016140;28;20181;-74
2024/01/08 05:00:49;;;;;;;1999.90;999.90;;;-0.80;92.20;;;;;;5015404;28;20165;-72
2024/01/08 05:03:15;;;;;;;1999.90;999.90;;;-0.80;92.20;;;;;;5014163;28;20691;-73
2024/01/08 05:05:42;;;;;;;1999.90;999.90;;;-0.90;91.70;;;;;;5014135;28;20602;-73
2024/01/08 05:08:07;;;;;;;1999.90;999.90;;;-0.80;92.70;;;;;;5014385;28;20249;-73
2024/01/08 05:10:33;;;;;;;1999.90;999.90;;;;;;;;;;5014577;28;20664;-73
2024/01/08 05:12:59;;;;;;;1999.90;999.90;;;-0.90;93.40;;;;;;5013913;28;20169;-73
2024/01/08 05:15:24;;;;;;;1999.90;999.90;;;-0.80;99.90;;;;;;5014077;28;20467;-73
2024/01/08 05:17:50;;;;;;;1999.90;999.90;;;-0.90;95.10;;;;;;5013933;28;20177;-73
2024/01/08 05:20:16;;;;;;;1999.90;999.90;;;-0.90;95.10;;;;;;5014423;28;20181;-72
2024/01/08 05:22:41;;;;;;;1999.90;999.90;;;-0.90;95.30;;;;;;5013729;28;20181;-73
2024/01/08 05:25:09;;;;;;;1999.90;999.90;;;;;;;;;;5013792;28;20177;-73
2024/01/08 05:27:35;;;;;;;1999.90;999.90;;;-1.00;97.80;;;;;;5013751;28;20205;-74
2024/01/08 05:30:00;;;;;;;1999.90;999.90;;;-0.90;98.90;;;;;;5013824;28;20572;-73
2024/01/08 05:32:26;;;;;;;1999.90;999.90;;;-0.80;97.40;;;;;;5013576;28;20210;-73
2024/01/08 05:34:51;;;;;;;1999.90;999.90;;;-0.70;96.90;;;;;;5019576;28;20176;-73
2024/01/08 05:37:17;;;;;;;1999.90;999.90;;;-0.70;97.20;;;;;;5013219;28;20232;-73
2024/01/08 05:39:43;;;;;;;1999.90;999.90;;;-0.70;97.70;;;;;;5021865;28;20595;-73
2024/01/08 05:42:08;;;;;;;1999.90;999.90;;;-0.70;97.10;;;;;;5020341;28;20169;-73
2024/01/08 05:44:35;;;;;;;1999.90;999.90;;;-0.70;97.00;;;;;;5015692;28;20200;-73
2024/01/08 05:47:00;;;;;;;1999.90;999.90;;;-0.80;97.80;;;;;;5016134;28;20216;-72
2024/01/08 05:49:26;;;;;;;1999.90;999.90;;;-0.80;97.50;;;;;;5013437;28;20173;-73
2024/01/08 05:51:51;;;;;;;1999.90;999.90;;;-0.70;98.60;;;;;;5013518;28;20644;-73
2024/01/08 05:54:17;;;;;;;1999.90;999.90;;;-0.70;98.20;;;;;;5013218;28;20549;-74
2024/01/08 05:56:43;;;;;;;1999.90;999.90;;;-0.60;98.60;;;;;;5021545;28;20211;-73
2024/01/08 05:59:08;;;;;;;1999.90;999.90;;;-0.70;98.10;;;;;;5029980;28;20204;-73
2024/01/08 06:01:34;;;;;;;1999.90;999.90;;;-0.60;98.60;;;;;;5032982;28;20651;-72
2024/01/08 06:04:00;;;;;;;1999.90;999.90;;;-0.60;98.30;;;;;;5032830;28;20227;-72
2024/01/08 06:06:26;;;;;;;1999.90;999.90;;;-0.60;98.00;;;;;;5032941;28;20616;-72
2024/01/08 06:08:51;;;;;;;1999.90;999.90;;;-0.60;97.80;;;;;;5032972;28;20175;-72
2024/01/08 06:11:17;;;;;;;1999.90;999.90;;;;;;;;;;5032894;28;20701;-72
2024/01/08 06:13:43;;;;;;;1999.90;999.90;;;-0.60;98.10;;;;;;5032671;28;20573;-72
2024/01/08 06:16:15;;;;;;;1999.90;999.90;;;-0.70;98.60;;;;;;5032637;28;20238;-72
2024/01/08 06:18:41;;;;;;;1999.90;999.90;;;-0.60;99.90;;;;;;5033034;28;20177;-72
2024/01/08 06:21:07;;;;;;;1999.90;999.90;;;-0.70;99.90;;;;;;5032712;28;20218;-72
2024/01/08 06:23:32;;;;;;;1999.90;999.90;;;-0.60;99.90;;;;;;5032409;28;20929;-72
2024/01/08 06:25:58;;;;;;;1999.90;999.90;;;-0.60;99.90;;;;;;5032282;28;20619;-72
2024/01/08 06:28:23;;;;;;;1999.90;999.90;;;-0.70;99.90;;;;;;5032555;28;20185;-72
2024/01/08 06:30:49;;;;;;;1999.90;999.90;;;-0.70;99.90;;;;;;5031733;28;20176;-72
2024/01/08 06:33:14;;;;;;;1999.90;999.90;;;-0.40;99.90;;;;;;5032221;28;20632;-72
2024/01/08 06:35:41;;;;;;;1999.90;999.90;;;-0.80;99.90;;;;;;5032390;28;20242;-72
2024/01/08 06:38:07;;;;;;;1999.90;999.90;;;-0.80;99.90;;;;;;5032475;28;20196;-72
2024/01/08 06:40:32;;;;;;;1999.90;999.90;;;-0.80;99.90;;;;;;5032409;28;20242;-72
2024/01/08 06:42:58;;;;;;;1999.90;999.90;;;-0.80;99.90;;;;;;5032152;28;20654;-72
2024/01/08 06:45:23;;;;;;;1999.90;999.90;;;-0.70;99.90;;;;;;5031970;28;20167;-72
2024/01/08 06:47:49;;;;;;;1999.90;999.90;;;-0.70;99.90;;;;;;5032238;28;20663;-72
2024/01/08 06:50:15;;;;;;;1999.90;999.90;;;-0.70;99.90;;;;;;5032218;28;20179;-72
2024/01/08 06:52:40;;;;;;;1999.90;999.90;;;-0.80;99.90;;;;;;5031990;28;20211;-72
2024/01/08 06:55:07;;;;;;;1999.90;999.90;;;-0.80;99.90;;;;;;5032202;28;20403;-72
2024/01/08 06:57:32;;;;;;;1999.90;999.90;;;-0.70;99.90;;;;;;5032035;28;20171;-72
2024/01/08 06:59:58;;;;;;;1999.90;999.90;;;-0.70;99.90;;;;;;5031998;28;20184;-72
2024/01/08 07:02:23;;;;;;;1999.90;999.90;;;-0.70;99.90;;;;;;5018029;28;20178;-72
2024/01/08 07:04:49;;;;;;;1999.90;999.90;;;-0.70;99.90;;;;;;5005969;28;20180;-72
2024/01/08 07:07:14;;;;;;;1999.90;999.90;;;-0.70;99.90;;;;;;5028450;28;20196;-73
2024/01/08 07:09:40;;;;;;;1999.90;999.90;;;-0.60;99.90;;;;;;5020375;28;20503;-73
2024/01/08 07:12:06;;;;;;;1999.90;999.90;;;-0.60;99.90;;;;;;5012206;28;20169;-72
2024/01/08 07:14:32;;;;;;;1999.90;999.90;;;-0.60;99.90;;;;;;5011715;28;20177;-72
2024/01/08 07:16:58;;;;;;;1999.90;999.90;;;-0.70;99.90;;;;;;5012031;28;20208;-72
2024/01/08 07:19:24;;;;;;;1999.90;999.90;;;-0.70;99.90;;;;;;5012057;28;20675;-72
2024/01/08 07:21:49;;;;;;;1999.90;999.90;;;-0.60;99.90;;;;;;5020113;28;20177;-73
2024/01/08 07:24:15;;;;;;;1999.90;999.90;;;-0.60;99.90;;;;;;5011992;28;20180;-72
2024/01/08 07:26:41;;;;;;;1999.90;999.90;;;-0.70;99.90;;;;;;5020077;28;20263;-72
2024/01/08 07:29:06;;;;;;;1999.90;999.90;;;-0.70;99.90;;;;;;5011819;28;20168;-72
2024/01/08 07:31:32;;;;;;;1999.90;999.90;;;-0.70;99.90;;;;;;5012110;28;20173;-72
2024/01/08 07:33:58;;;;;;;1999.90;999.90;;;-0.70;99.90;;;;;;5019876;28;20580;-72
2024/01/08 07:36:25;;;;;;;1999.90;999.90;;;-0.70;99.90;;;;;;5019880;28;20846;-72
2024/01/08 07:38:51;;;;;;;1999.90;999.90;;;-0.70;99.90;;;;;;5020273;28;20227;-72
2024/01/08 07:41:16;;;;;;;1999.90;999.90;;;-0.70;98.20;;;;;;5012466;28;20189;-72
2024/01/08 07:43:42;;;;;;;1999.90;999.90;;;-0.70;94.60;;;;;;5015374;28;20165;-72
2024/01/08 07:46:08;;;;;;;1999.90;999.90;;;-0.70;93.30;;;;;;5011649;28;20213;-72
2024/01/08 07:48:33;;;;;;;1999.90;999.90;;;-0.60;93.80;;;;;;5015685;28;20226;-72
2024/01/08 07:51:00;;;;;;;1999.90;999.90;;;-0.60;92.60;;;;;;5015626;28;20180;-72
2024/01/08 07:53:26;;;;;;;1999.90;999.90;;;-0.50;91.60;;;;;;5032049;28;20646;-72
2024/01/08 07:55:51;;;;;;;1999.90;999.90;;;-0.50;88.30;;;;;;5020600;28;20283;-72
2024/01/08 07:58:17;;;;;;;1999.90;999.90;;;-0.60;78.20;;;;;;5027098;28;20412;-72
2024/01/08 08:00:43;;;;;;;1999.90;999.90;;;-0.50;78.70;;;;;;5027047;28;20171;-72
2024/01/08 08:03:09;;;;;;;1999.90;999.90;;;-0.40;78.20;;;;;;5019378;28;20414;-72
2024/01/08 08:05:34;;;;;;;1999.90;999.90;;;-0.40;76.70;;;;;;5018117;28;20219;-72
2024/01/08 08:08:00;;;;;;;1999.90;999.90;;;-0.30;74.00;;;;;;5020979;28;20181;-72
2024/01/08 08:10:26;;;;;;;1999.90;999.90;;;;;;;;;;5033245;28;20168;-72
2024/01/08 08:12:52;;;;;;;1999.90;999.90;;;-0.30;66.70;;;;;;5034817;28;20196;-72
2024/01/08 08:15:19;;;;;;;1999.90;999.90;;;-0.10;93.60;;;;;;5017534;28;20681;-72
2024/01/08 08:17:44;;;;;;;1999.90;999.90;;;-0.30;65.70;;;;;;5024075;28;20578;-72
2024/01/08 08:20:10;;;;;;;1999.90;999.90;;;-0.30;64.20;;;;;;5027344;28;20161;-72
2024/01/08 08:22:36;;;;;;;1999.90;999.90;;;-0.20;62.30;;;;;;5015001;28;20172;-72
2024/01/08 08:25:02;;;;;;;1999.90;999.90;;;-0.30;60.20;;;;;;5015079;28;20181;-72
2024/01/08 08:27:28;;;;;;;1999.90;999.90;;;-0.30;61.90;;;;;;5014919;28;20287;-72
2024/01/08 08:29:55;;;;;;;1999.90;999.90;;;-0.30;63.80;;;;;;5015070;28;20843;-72
2024/01/08 08:32:21;;;;;;;1999.90;999.90;;;-0.40;58.90;;;;;;5015048;28;20232;-72
2024/01/08 08:34:46;;;;;;;1999.90;999.90;;;-0.30;59.50;;;;;;5014798;28;20173;-72
2024/01/08 08:37:14;;;;;;;1999.90;999.90;;;-0.30;61.90;;;;;;5014823;28;20185;-72
2024/01/08 08:39:40;;;;;;;1999.90;999.90;;;-0.30;63.90;;;;;;5014909;28;20252;-72
2024/01/08 08:42:06;;;;;;;1999.90;999.90;;;-0.20;66.30;;;;;;5014619;28;20288;-72
2024/01/08 08:44:32;;;;;;;1999.90;999.90;;;-0.20;65.70;;;;;;5014648;28;20180;-72
2024/01/08 08:46:59;;;;;;;1999.90;999.90;;;-0.10;64.00;;;;;;5014468;28;20213;-72
2024/01/08 08:49:24;;;;;;;1999.90;999.90;;;-0.10;62.80;;;;;;5014886;28;20810;-72
2024/01/08 08:51:50;;;;;;;1999.90;999.90;;;-0.10;61.00;;;;;;5014668;28;20180;-72
2024/01/08 08:54:16;;;;;;;1999.90;999.90;;;;;;;;;;5013753;28;20165;-72
2024/01/08 08:56:42;;;;;;;1999.90;999.90;;;-0.10;58.50;;;;;;5014594;28;20288;-72
2024/01/08 08:59:07;;;;;;;1999.90;999.90;;;-0.10;58.20;;;;;;5014467;28;20205;-72
2024/01/08 09:01:33;;;;;;;1999.90;999.90;;;-0.10;57.60;;;;;;5014471;28;20169;-72
2024/01/08 09:03:59;;;;;;;1999.90;999.90;;;-0.20;58.20;;;;;;5014281;28;20200;-72
2024/01/08 09:06:25;;;;;;;1999.90;999.90;;;-0.20;59.80;;;;;;5014268;28;20190;-72
2024/01/08 09:08:51;;;;;;;1999.90;999.90;;;-0.20;59.90;;;;;;5014282;28;20400;-72
2024/01/08 09:11:20;;;;;;;1999.90;999.90;;;-0.10;60.60;;;;;;5014231;28;20268;-72
2024/01/08 09:13:49;;;;;;;1999.90;999.90;;;0.00;61.10;;;;;;5014143;28;20690;-72
2024/01/08 09:16:16;;;;;;;1999.90;999.90;;;0.10;60.80;;;;;;5014115;28;20193;-74
2024/01/08 09:18:42;;;;;;;1999.90;999.90;;;0.20;60.00;;;;;;5014241;28;20185;-74
2024/01/08 09:21:11;;;;;;;1999.90;999.90;;;0.30;57.10;;;;;;5014127;28;20173;-73
2024/01/08 09:23:38;;;;;;;1999.90;999.90;;;0.30;49.40;;;;;;5013857;28;20554;-73
2024/01/08 09:26:04;;;;;;;1999.90;999.90;;;0.40;48.30;;;;;;5013975;28;20197;-73
2024/01/08 09:28:33;;;;;;;1999.90;999.90;;;0.30;46.50;;;;;;5014187;28;20170;-72
2024/01/08 09:31:00;;;;;;;1999.90;999.90;;;0.40;63.50;;;;;;5013795;28;20474;-73
2024/01/08 09:33:27;;;;;;;1999.90;999.90;;;0.60;68.40;;;;;;5011815;28;20595;-73
2024/01/08 09:35:52;;;;;;;1999.90;999.90;;;0.40;71.10;;;;;;5014102;28;20224;-73
2024/01/08 09:38:18;;;;;;;1999.90;999.90;;;0.70;76.90;;;;;;5001351;28;20291;-73
2024/01/08 09:40:44;;;;;;;1999.90;999.90;;;0.40;81.00;;;;;;5011956;28;20598;-73
2024/01/08 09:43:14;;;;;;;1999.90;999.90;;;0.30;82.90;;;;;;5021627;28;20165;-73
2024/01/08 09:46:03;;;;;;;1999.90;999.90;;;0.30;88.80;;;;;;5031260;28;20462;-72
2024/01/08 09:48:30;;;;;;;1999.90;999.90;;;0.20;84.50;;;;;;5021064;28;20819;-73
2024/01/08 09:50:58;;;;;;;1999.90;999.90;;;0.30;92.00;;;;;;5021086;28;20547;-73
2024/01/08 09:53:28;;;;;;;1999.90;999.90;;;0.50;91.70;;;;;;5024666;28;20172;-73
2024/01/08 09:55:53;;;;;;;1999.90;999.90;;;0.70;85.10;;;;;;5021868;28;20199;-73
2024/01/08 09:58:19;;;;;;;1999.90;999.90;;;0.80;84.50;;;;;;5029195;28;20200;-72
2024/01/08 10:00:45;;;;;;;1999.90;999.90;;;0.90;80.60;;;;;;5010640;28;20187;-73
2024/01/08 10:03:11;;;;;;;1999.90;999.90;;;1.00;77.40;;;;;;5021128;28;20246;-72
2024/01/08 10:05:38;;;;;;;1999.90;999.90;;;0.90;70.70;;;;;;5022403;28;20272;-72
2024/01/08 10:08:05;;;;;;;1999.90;999.90;;;1.00;71.30;;;;;;5019943;28;20173;-72
2024/01/08 10:10:31;;;;;;;1999.90;999.90;;;0.80;67.80;;;;;;5026310;28;20679;-72
2024/01/08 10:12:57;;;;;;;1999.90;999.90;;;0.80;67.90;;;;;;5026073;28;20180;-72
2024/01/08 10:15:23;;;;;;;1999.90;999.90;;;;;;;;;;5032656;28;20180;-72
2024/01/08 10:17:50;;;;;;;1999.90;999.90;;;0.40;62.30;;;;;;5032669;28;20659;-73
2024/01/08 10:20:16;;;;;;;1999.90;999.90;;;0.70;69.00;;;;;;5032911;28;20176;-73
2024/01/08 10:22:44;;;;;;;1999.90;999.90;;;0.60;68.90;;;;;;5032601;28;20251;-73
2024/01/08 10:25:10;;;;;;;1999.90;999.90;;;0.40;68.60;;;;;;5032405;28;20176;-73
2024/01/08 10:27:36;;;;;;;1999.90;999.90;;;0.50;69.60;;;;;;5032528;28;20200;-72
2024/01/08 10:30:03;;;;;;;1999.90;999.90;;;0.50;67.80;;;;;;5019587;28;20186;-73
2024/01/08 10:32:29;;;;;;;1999.90;999.90;;;0.40;67.20;;;;;;5006572;28;20208;-73
2024/01/08 10:34:56;;;;;;;1999.90;999.90;;;0.50;69.10;;;;;;5002708;28;20188;-72
2024/01/08 10:37:22;;;;;;;1999.90;999.90;;;0.60;69.30;;;;;;5008950;28;20300;-72
2024/01/08 10:39:48;;;;;;;1999.90;999.90;;;0.70;67.40;;;;;;5022341;28;20252;-72
2024/01/08 10:42:14;;;;;;;1999.90;999.90;;;0.50;62.10;;;;;;5026933;28;20259;-72
2024/01/08 10:44:40;;;;;;;1999.90;999.90;;;0.60;61.10;;;;;;5031681;28;20663;-72
2024/01/08 10:47:09;;;;;;;1999.90;999.90;;;0.50;60.90;;;;;;5039185;23;20244;-71
2024/01/08 10:49:36;;;;;;;1999.90;999.90;;;0.60;59.80;;;;;;5012335;28;20408;-73
2024/01/08 10:52:25;;;;;;;1999.90;999.90;;;0.70;59.60;;;;;;5012527;28;20173;-71
2024/01/08 10:54:54;;;;;;;1999.90;999.90;;;0.70;56.00;;;;;;5011953;28;20643;-71
2024/01/08 10:57:21;;;;;;;1999.90;999.90;;;0.90;57.70;;;;;;5011899;28;20582;-71
2024/01/08 10:59:50;;;;;;;1999.90;999.90;;;1.20;55.30;;;;;;5012136;28;20173;-72
2024/01/08 11:02:16;;;;;;;1999.90;999.90;;;1.20;57.30;;;;;;5012207;28;20176;-72
2024/01/08 11:04:43;;;;;;;1999.90;999.90;;;1.30;52.70;;;;;;4994376;28;20215;-71
2024/01/08 11:07:11;;;;;;;1999.90;999.90;;;1.40;51.10;;;;;;5012156;28;20642;-72
2024/01/08 11:09:38;;;;;;;1999.90;999.90;;;1.50;49.10;;;;;;5020291;28;20191;-72
2024/01/08 11:12:04;;;;;;;1999.90;999.90;;;1.50;44.40;;;;;;5012036;28;20177;-71
2024/01/08 11:14:33;;;;;;;1999.90;999.90;;;1.30;35.70;;;;;;5011849;28;20227;-71
2024/01/08 11:16:58;;;;;;;1999.90;999.90;;;1.20;33.60;;;;;;5011531;28;20204;-72
2024/01/08 11:19:26;;;;;;;1999.90;999.90;;;1.20;30.90;;;;;;5012329;28;20181;-71
2024/01/08 11:21:57;;;;;;;1999.90;999.90;;;1.40;29.50;;;;;;5016785;28;20177;-77
2024/01/08 11:24:24;;;;;;;1999.90;999.90;;;2.90;28.40;;;;;;5006724;28;20180;-77
2024/01/08 11:26:51;;;;;;;1999.90;999.90;;;1.10;24.40;;;;;;4986383;28;20201;-77
2024/01/08 11:29:17;;;;;;;1999.90;999.90;;;0.90;22.20;;;;;;5015843;28;20260;-72
2024/01/08 11:31:46;;;;;;;1999.90;999.90;;;0.80;20.90;;;;;;5014323;28;20446;-78
2024/01/08 11:34:46;;;;;;;1999.90;999.90;;;2.60;22.20;;;;;;5014088;28;20637;-79
2024/01/08 11:37:26;;;;;;;1999.90;999.90;;;0.90;17.50;;;;;;5000596;28;20231;-79
2024/01/08 11:39:54;;;;;;;1999.90;999.90;;;1.10;16.50;;;;;;5004769;28;20180;-72
2024/01/08 11:42:21;;;;;;;1999.90;999.90;;;1.20;16.70;;;;;;5014002;28;20659;-76
2024/01/08 11:44:46;;;;;;;1999.90;999.90;;;1.40;14.40;;;;;;4989313;28;20182;-77
2024/01/08 11:47:12;;;;;;;1999.90;999.90;;;1.50;12.30;;;;;;5015798;28;20548;-79
2024/01/08 11:49:38;;;;;;;1999.90;999.90;;;1.60;12.50;;;;;;5030396;28;20165;-78
2024/01/08 11:52:07;;;;;;;1999.90;999.90;;;1.70;12.30;;;;;;5030883;28;20193;-76
2024/01/08 11:54:33;;;;;;;1999.90;999.90;;;1.80;10.50;;;;;;5030959;28;20226;-73
2024/01/08 11:56:58;;;;;;;1999.90;999.90;;;1.90;8.80;;;;;;5006790;28;20204;-73
2024/01/08 11:59:35;;;;;;;1999.90;999.90;;;2.30;6.30;;;;;;5010999;28;20177;-73
2024/01/08 12:02:17;;;;;;;1999.90;999.90;;;2.80;4.40;;;;;;5011038;28;20191;-73